createdAt,value
2018-05-04T06:32:19.080Z,1.70
2018-05-04T06:33:19.078Z,2.00
2018-05-04T06:34:19.075Z,1.90
2018-05-04T06:35:19.071Z,1.60
2018-05-04T06:36:19.069Z,1.90
2018-05-04T06:37:19.068Z,2.00
2018-05-04T06:38:19.066Z,1.80
2018-05-04T06:39:19.064Z,2.10
2018-05-04T06:40:19.062Z,1.60
2018-05-04T06:41:19.073Z,2.10
2018-05-04T06:42:19.059Z,2.10
2018-05-04T06:43:19.057Z,2.30
2018-05-04T06:44:19.058Z,2.30
2018-05-04T06:45:19.056Z,1.90
2018-05-04T06:46:19.056Z,2.10
2018-05-04T06:47:19.056Z,2.00
2018-05-04T06:48:19.054Z,2.20
2018-05-04T06:49:19.053Z,2.90
2018-05-04T06:50:19.054Z,1.90
2018-05-04T06:51:19.052Z,1.90
2018-05-04T06:52:19.054Z,2.60
2018-05-04T06:53:19.126Z,2.30
2018-05-04T06:54:19.056Z,2.10
2018-05-04T06:55:19.051Z,1.80
2018-05-04T06:56:19.051Z,2.20
2018-05-04T06:57:19.051Z,1.70
2018-05-04T06:58:19.051Z,2.10
2018-05-04T06:59:19.096Z,1.80
2018-05-04T07:00:19.051Z,2.50
2018-05-04T07:01:19.052Z,2.50
2018-05-04T07:02:19.052Z,3.10
2018-05-04T07:03:19.053Z,2.10
2018-05-04T07:04:19.051Z,1.90
2018-05-04T07:05:19.053Z,2.40
2018-05-04T07:06:19.053Z,2.20
2018-05-04T07:07:19.053Z,2.20
2018-05-04T07:08:19.053Z,1.90
2018-05-04T07:09:19.053Z,2.10
2018-05-04T07:10:19.090Z,2.70
2018-05-04T07:11:19.054Z,2.90
2018-05-04T07:12:19.064Z,2.30
2018-05-04T07:13:19.057Z,2.20
2018-05-04T07:14:19.056Z,2.20
2018-05-04T07:15:19.056Z,1.80
2018-05-04T07:16:19.057Z,2.30
2018-05-04T07:17:19.057Z,3.10
2018-05-04T07:18:19.059Z,2.40
2018-05-04T07:19:19.058Z,2.30
2018-05-04T07:20:19.059Z,2.10
2018-05-04T07:21:19.060Z,2.20
2018-05-04T07:22:19.064Z,1.80
2018-05-04T07:23:19.064Z,2.30
2018-05-04T07:24:19.062Z,2.00
2018-05-04T07:25:19.062Z,2.20
2018-05-04T07:26:19.064Z,1.90
2018-05-04T07:27:19.065Z,2.20
2018-05-04T07:28:19.065Z,2.60
2018-05-04T07:29:19.068Z,2.00
2018-05-04T07:30:19.069Z,2.30
2018-05-04T07:31:19.068Z,1.90
2018-05-04T07:32:19.068Z,2.20
2018-05-04T07:33:19.071Z,2.30
2018-05-04T07:34:19.072Z,2.20
2018-05-04T07:35:19.074Z,2.10
2018-05-04T07:36:19.099Z,2.60
2018-05-04T07:37:19.075Z,2.50
2018-05-04T07:38:19.077Z,2.30
2018-05-04T07:39:19.080Z,1.90
2018-05-04T07:40:19.080Z,1.70
2018-05-04T07:41:19.080Z,2.00
2018-05-04T07:42:19.155Z,2.00
2018-05-04T07:43:19.082Z,2.50
2018-05-04T07:44:19.085Z,1.60
2018-05-04T07:45:19.085Z,2.70
2018-05-04T07:46:19.088Z,2.10
2018-05-04T07:47:19.089Z,2.50
2018-05-04T07:48:19.091Z,2.50
2018-05-04T07:49:19.092Z,1.70
2018-05-04T07:50:19.097Z,2.80
2018-05-04T07:51:19.096Z,2.50
2018-05-04T07:52:19.098Z,2.00
2018-05-04T07:53:19.100Z,2.60
2018-05-04T07:54:19.102Z,2.10
2018-05-04T07:55:19.172Z,2.30
2018-05-04T07:56:19.106Z,1.80
2018-05-04T07:57:19.109Z,2.10
2018-05-04T07:58:19.111Z,2.40
2018-05-04T07:59:19.113Z,1.70
2018-05-04T08:00:19.117Z,2.20
2018-05-04T08:01:19.123Z,1.90
2018-05-04T08:02:19.127Z,1.60
2018-05-04T08:03:19.131Z,1.90
2018-05-04T08:04:19.139Z,1.70
2018-05-04T08:05:19.145Z,1.70
2018-05-04T08:06:19.151Z,2.00
2018-05-04T08:07:19.156Z,1.70
2018-05-04T08:08:19.166Z,2.00
2018-05-04T08:09:19.174Z,1.90
2018-05-04T08:10:19.185Z,1.80
2018-05-04T08:11:19.195Z,1.80
2018-05-04T08:12:19.203Z,2.10
2018-05-04T08:13:19.213Z,1.60
2018-05-04T08:14:19.223Z,1.80
2018-05-04T08:15:19.235Z,2.00
2018-05-04T08:16:19.246Z,1.70
2018-05-04T08:17:19.258Z,1.60
2018-05-04T08:18:19.270Z,2.00
2018-05-04T08:19:19.284Z,1.40
2018-05-04T08:20:19.295Z,1.40
2018-05-04T08:21:19.310Z,1.50
2018-05-04T08:22:19.323Z,1.40
2018-05-04T08:23:19.334Z,1.20
2018-05-04T08:24:19.349Z,2.00
2018-05-04T08:25:19.364Z,1.50
2018-05-04T08:26:19.379Z,1.60
2018-05-04T08:27:19.437Z,1.40
2018-05-04T08:28:19.407Z,1.80
2018-05-04T08:29:19.422Z,1.80
2018-05-04T08:30:19.437Z,1.60
2018-05-04T08:31:19.452Z,1.80
2018-05-04T08:32:19.467Z,1.40
2018-05-04T08:33:19.486Z,1.30
2018-05-04T08:34:19.499Z,1.50
2018-05-04T08:35:19.536Z,1.30
2018-05-04T08:36:19.531Z,1.80
2018-05-04T08:37:19.548Z,1.50
2018-05-04T08:38:19.565Z,1.30
2018-05-04T08:39:19.581Z,1.40
2018-05-04T08:40:19.597Z,1.70
2018-05-04T08:41:19.646Z,1.60
2018-05-04T08:42:19.631Z,1.60
2018-05-04T08:43:19.646Z,1.70
2018-05-04T08:44:19.665Z,1.50
2018-05-04T08:45:19.682Z,1.40
2018-05-04T08:46:19.700Z,1.30
2018-05-04T08:47:19.715Z,1.50
2018-05-04T08:48:19.808Z,1.30
2018-05-04T08:49:19.751Z,1.40
2018-05-04T08:50:19.768Z,1.50
2018-05-04T08:51:19.789Z,1.50
2018-05-04T08:52:19.803Z,1.50
2018-05-04T08:53:19.821Z,1.50
2018-05-04T08:54:19.881Z,1.20
2018-05-04T08:55:19.856Z,1.00
2018-05-04T08:56:19.875Z,1.00
2018-05-04T08:57:19.964Z,1.50
2018-05-04T08:58:19.910Z,1.10
2018-05-04T08:59:19.927Z,1.10
2018-05-04T09:00:20.039Z,1.20
2018-05-04T09:01:19.964Z,1.30
2018-05-04T09:02:20.008Z,1.60
2018-05-04T09:03:20.002Z,1.40
2018-05-04T09:04:20.019Z,1.40
2018-05-04T09:05:20.105Z,1.60
2018-05-04T09:06:20.055Z,1.30
2018-05-04T09:07:20.074Z,1.30
2018-05-04T09:08:20.093Z,1.40
2018-05-04T09:09:20.112Z,1.00
2018-05-04T09:10:20.131Z,1.60
2018-05-04T09:11:20.149Z,2.90
2018-05-04T09:12:20.168Z,2.40
2018-05-04T09:13:20.187Z,1.50
2018-05-04T09:14:20.205Z,1.50
2018-05-04T09:15:20.224Z,1.70
2018-05-04T09:16:20.242Z,1.40
2018-05-04T09:17:20.260Z,1.30
2018-05-04T09:18:20.279Z,1.40
2018-05-04T09:19:20.300Z,1.40
2018-05-04T09:20:20.316Z,1.50
2018-05-04T09:21:20.335Z,1.50
2018-05-04T09:22:20.355Z,1.20
2018-05-04T09:23:20.374Z,1.40
2018-05-04T09:24:20.392Z,1.40
2018-05-04T09:25:20.420Z,1.30
2018-05-04T09:26:20.430Z,1.30
2018-05-04T09:27:20.449Z,1.40
2018-05-04T09:28:20.468Z,1.30
2018-05-04T09:29:20.487Z,1.20
2018-05-04T09:30:20.506Z,1.30
2018-05-04T09:31:20.525Z,1.10
2018-05-04T09:32:20.544Z,1.30
2018-05-04T09:33:20.562Z,1.20
2018-05-04T09:34:20.582Z,1.50
2018-05-04T09:35:20.600Z,1.40
2018-05-04T09:36:20.619Z,1.30
2018-05-04T09:37:20.648Z,1.40
2018-05-04T09:38:20.657Z,1.10
2018-05-04T09:39:20.676Z,1.30
2018-05-04T09:40:20.696Z,1.40
2018-05-04T09:41:20.716Z,1.30
2018-05-04T09:42:20.735Z,1.40
2018-05-04T09:43:20.819Z,1.40
2018-05-04T09:44:20.774Z,1.30
2018-05-04T09:45:20.791Z,1.20
2018-05-04T09:46:20.811Z,1.30
2018-05-04T09:47:20.828Z,1.50
2018-05-04T09:48:20.848Z,1.10
2018-05-04T09:49:20.868Z,1.40
2018-05-04T09:50:20.891Z,1.20
2018-05-04T09:51:20.905Z,1.30
2018-05-04T09:52:20.924Z,1.60
2018-05-04T09:53:20.945Z,1.20
2018-05-04T09:54:20.965Z,1.10
2018-05-04T09:55:20.980Z,1.70
2018-05-04T09:56:21.000Z,1.20
2018-05-04T09:57:21.018Z,1.00
2018-05-04T09:58:21.037Z,1.30
2018-05-04T09:59:21.055Z,0.90
2018-05-04T10:00:21.074Z,1.20
2018-05-04T10:01:21.093Z,1.50
2018-05-04T10:02:21.112Z,1.30
2018-05-04T10:03:21.129Z,1.20
2018-05-04T10:04:21.149Z,1.60
2018-05-04T10:05:21.167Z,1.40
2018-05-04T10:06:21.187Z,1.60
2018-05-04T10:07:21.207Z,1.50
2018-05-04T10:08:21.224Z,1.80
2018-05-04T10:09:21.242Z,1.30
2018-05-04T10:10:21.262Z,1.60
2018-05-04T10:11:21.279Z,1.60
2018-05-04T10:12:21.297Z,1.80
2018-05-04T10:13:21.317Z,1.80
2018-05-04T10:14:21.335Z,1.60
2018-05-04T10:15:21.358Z,1.80
2018-05-04T10:16:21.371Z,1.90
2018-05-04T10:17:21.391Z,1.60
2018-05-04T10:18:21.408Z,1.70
2018-05-04T10:19:21.425Z,1.50
2018-05-04T10:20:21.444Z,1.50
2018-05-04T10:21:21.462Z,1.60
2018-05-04T10:22:21.481Z,1.80
2018-05-04T10:23:21.497Z,1.80
2018-05-04T10:24:21.515Z,1.80
2018-05-04T10:25:21.536Z,2.00
2018-05-04T10:26:21.551Z,2.30
2018-05-04T10:27:21.568Z,1.80
2018-05-04T10:28:21.585Z,1.90
2018-05-04T10:29:21.607Z,2.20
2018-05-04T10:30:21.621Z,2.20
2018-05-04T10:31:21.682Z,1.90
2018-05-04T10:32:21.653Z,1.90
2018-05-04T10:33:21.672Z,1.90
2018-05-04T10:34:21.689Z,2.10
2018-05-04T10:35:21.708Z,2.00
2018-05-04T10:36:21.723Z,1.90
2018-05-04T10:37:21.738Z,2.20
2018-05-04T10:38:21.823Z,2.10
2018-05-04T10:39:21.773Z,2.10
2018-05-04T10:40:21.790Z,1.90
2018-05-04T10:41:21.807Z,2.00
2018-05-04T10:42:21.824Z,2.10
2018-05-04T10:43:21.840Z,2.00
2018-05-04T10:44:21.857Z,1.90
2018-05-04T10:45:21.877Z,1.90
2018-05-04T10:46:21.890Z,1.90
2018-05-04T10:47:21.906Z,2.20
2018-05-04T10:48:21.922Z,2.40
2018-05-04T10:49:21.939Z,2.00
2018-05-04T10:50:21.954Z,1.60
2018-05-04T10:51:21.970Z,2.00
2018-05-04T10:52:21.986Z,2.10
2018-05-04T10:53:22.002Z,1.70
2018-05-04T10:54:22.019Z,1.90
2018-05-04T10:55:22.033Z,2.10
2018-05-04T10:56:22.048Z,2.50
2018-05-04T10:57:22.066Z,2.20
2018-05-04T10:58:22.081Z,2.10
2018-05-04T10:59:22.097Z,2.40
2018-05-04T11:00:22.111Z,1.70
2018-05-04T11:01:22.128Z,2.10
2018-05-04T11:02:22.143Z,2.00
2018-05-04T11:03:22.157Z,2.20
2018-05-04T11:04:22.173Z,1.80
2018-05-04T11:05:22.197Z,2.40
2018-05-04T11:06:22.208Z,2.00
2018-05-04T11:07:22.218Z,2.40
2018-05-04T11:08:22.233Z,2.10
2018-05-04T11:09:22.249Z,2.10
2018-05-04T11:10:22.262Z,2.40
2018-05-04T11:11:22.276Z,2.20
2018-05-04T11:12:22.290Z,2.10
2018-05-04T11:13:22.303Z,2.30
2018-05-04T11:14:22.317Z,2.60
2018-05-04T11:15:22.329Z,2.70
2018-05-04T11:16:22.342Z,2.70
2018-05-04T11:17:22.355Z,2.70
2018-05-04T11:18:22.370Z,2.30
2018-05-04T11:19:22.396Z,2.90
2018-05-04T11:20:22.394Z,2.70
2018-05-04T11:21:22.405Z,2.40
2018-05-04T11:22:22.418Z,2.80
2018-05-04T11:23:22.429Z,2.20
2018-05-04T11:24:22.459Z,2.70
2018-05-04T11:25:22.521Z,3.60
2018-05-04T11:26:22.462Z,2.20
2018-05-04T11:27:22.472Z,2.90
2018-05-04T11:28:22.486Z,2.20
2018-05-04T11:29:22.498Z,2.40
2018-05-04T11:30:22.509Z,3.20
2018-05-04T11:31:22.520Z,2.70
2018-05-04T11:32:22.530Z,2.90
2018-05-04T11:33:22.540Z,2.90
2018-05-04T11:34:22.550Z,2.70
2018-05-04T11:35:22.559Z,3.40
2018-05-04T11:36:22.571Z,3.10
2018-05-04T11:37:22.581Z,3.30
2018-05-04T11:38:22.591Z,2.70
2018-05-04T11:39:22.600Z,2.90
2018-05-04T11:40:22.610Z,2.80
2018-05-04T11:41:22.620Z,2.80
2018-05-04T11:42:22.631Z,3.20
2018-05-04T11:43:22.644Z,2.80
2018-05-04T11:44:22.650Z,3.40
2018-05-04T11:45:22.669Z,3.30
2018-05-04T11:46:22.673Z,3.30
2018-05-04T11:47:22.680Z,3.20
2018-05-04T11:48:22.690Z,2.50
2018-05-04T11:49:22.697Z,2.80
2018-05-04T11:50:22.706Z,2.90
2018-05-04T11:51:22.716Z,3.00
2018-05-04T11:52:22.725Z,3.00
2018-05-04T11:53:22.734Z,3.20
2018-05-04T11:54:22.744Z,2.80
2018-05-04T11:55:22.751Z,2.80
2018-05-04T11:56:22.767Z,3.00
2018-05-04T11:57:22.768Z,2.80
2018-05-04T11:58:22.778Z,2.70
2018-05-04T11:59:22.786Z,2.70
2018-05-04T12:00:22.795Z,2.70
2018-05-04T12:01:22.804Z,3.10
2018-05-04T12:02:22.840Z,3.00
2018-05-04T12:03:22.821Z,3.00
2018-05-04T12:04:22.830Z,2.50
2018-05-04T12:05:22.838Z,2.80
2018-05-04T12:06:22.845Z,3.00
2018-05-04T12:07:22.857Z,2.80
2018-05-04T12:08:22.862Z,3.00
2018-05-04T12:09:22.870Z,2.60
2018-05-04T12:10:22.880Z,2.50
2018-05-04T12:11:22.887Z,2.90
2018-05-04T12:12:22.896Z,2.70
2018-05-04T12:13:22.904Z,2.90
2018-05-04T12:14:22.915Z,3.00
2018-05-04T12:15:22.922Z,2.80
2018-05-04T12:16:22.993Z,3.10
2018-05-04T12:17:22.934Z,3.00
2018-05-04T12:18:22.943Z,2.60
2018-05-04T12:19:22.951Z,2.60
2018-05-04T12:20:22.959Z,2.30
2018-05-04T12:21:22.971Z,3.20
2018-05-04T12:22:22.974Z,2.70
2018-05-04T12:23:22.980Z,2.50
2018-05-04T12:24:22.989Z,3.00
2018-05-04T12:25:22.999Z,2.70
2018-05-04T12:26:23.005Z,2.90
2018-05-04T12:27:23.014Z,3.20
2018-05-04T12:28:23.021Z,2.50
2018-05-04T12:29:23.028Z,2.60
2018-05-04T12:30:23.038Z,2.40
2018-05-04T12:31:23.044Z,2.60
2018-05-04T12:32:23.052Z,2.70
2018-05-04T12:33:23.062Z,3.60
2018-05-04T12:34:23.072Z,3.20
2018-05-04T12:35:23.075Z,3.00
2018-05-04T12:36:23.085Z,3.10
2018-05-04T12:37:23.093Z,2.90
2018-05-04T12:38:23.099Z,3.20
2018-05-04T12:39:23.108Z,3.10
2018-05-04T12:40:23.115Z,2.80
2018-05-04T12:41:23.122Z,3.00
2018-05-04T12:42:23.128Z,2.90
2018-05-04T12:43:23.135Z,2.90
2018-05-04T12:44:23.143Z,3.00
2018-05-04T12:45:23.153Z,3.30
2018-05-04T12:46:23.159Z,3.30
2018-05-04T12:47:23.168Z,3.00
2018-05-04T12:48:23.175Z,3.20
2018-05-04T12:49:23.180Z,3.00
2018-05-04T12:50:23.189Z,2.90
2018-05-04T12:51:23.197Z,2.40
2018-05-04T12:52:23.206Z,2.70
2018-05-04T12:53:23.218Z,3.70
2018-05-04T12:54:23.219Z,3.00
2018-05-04T12:55:23.226Z,2.50
2018-05-04T12:56:23.238Z,2.50
2018-05-04T12:57:23.242Z,2.50
2018-05-04T12:58:23.248Z,2.30
2018-05-04T12:59:23.255Z,2.40
2018-05-04T13:00:23.265Z,2.40
2018-05-04T13:01:23.268Z,2.60
2018-05-04T13:02:23.276Z,2.50
2018-05-04T13:03:23.285Z,2.50
2018-05-04T13:04:23.336Z,2.80
2018-05-04T13:05:23.298Z,2.90
2018-05-04T13:06:23.306Z,2.60
2018-05-04T13:07:23.312Z,2.60
2018-05-04T13:08:23.320Z,2.90
2018-05-04T13:09:23.328Z,2.90
2018-05-04T13:10:23.335Z,2.70
2018-05-04T13:11:23.341Z,3.20
2018-05-04T13:12:23.348Z,2.70
2018-05-04T13:13:23.356Z,2.60
2018-05-04T13:14:23.364Z,3.10
2018-05-04T13:15:23.372Z,3.00
2018-05-04T13:16:23.378Z,3.00
2018-05-04T13:17:23.386Z,3.00
2018-05-04T13:18:23.393Z,2.80
2018-05-04T13:19:23.399Z,3.30
2018-05-04T13:20:23.408Z,3.00
2018-05-04T13:21:23.416Z,3.20
2018-05-04T13:22:23.422Z,3.30
2018-05-04T13:23:23.463Z,3.40
2018-05-04T13:24:23.437Z,2.80
2018-05-04T13:25:23.444Z,3.60
2018-05-04T13:26:23.455Z,3.10
2018-05-04T13:27:23.458Z,3.20
2018-05-04T13:28:23.466Z,2.50
2018-05-04T13:29:23.474Z,2.80
2018-05-04T13:30:23.481Z,2.80
2018-05-04T13:31:23.488Z,3.00
2018-05-04T13:32:23.496Z,3.00
2018-05-04T13:33:23.604Z,2.60
2018-05-04T13:34:23.512Z,3.00
2018-05-04T13:35:23.517Z,3.10
2018-05-04T13:36:23.525Z,2.90
2018-05-04T13:37:23.533Z,3.10
2018-05-04T13:38:23.541Z,2.70
2018-05-04T13:39:23.547Z,3.00
2018-05-04T13:40:23.555Z,2.90
2018-05-04T13:41:23.561Z,2.80
2018-05-04T13:42:23.570Z,2.80
2018-05-04T13:43:23.576Z,2.90
2018-05-04T13:44:23.587Z,2.80
2018-05-04T13:45:23.593Z,2.70
2018-05-04T13:46:23.599Z,3.00
2018-05-04T13:47:23.606Z,2.80
2018-05-04T13:48:23.614Z,2.80
2018-05-04T13:49:23.623Z,2.40
2018-05-04T13:50:23.630Z,2.50
2018-05-04T13:51:23.743Z,2.90
2018-05-04T13:52:23.645Z,2.80
2018-05-04T13:53:23.652Z,3.20
2018-05-04T13:54:23.660Z,2.50
2018-05-04T13:55:23.671Z,2.70
2018-05-04T13:56:23.676Z,2.90
2018-05-04T13:57:23.687Z,2.60
2018-05-04T13:58:23.692Z,2.70
2018-05-04T13:59:23.699Z,3.00
2018-05-04T14:00:23.707Z,3.10
2018-05-04T14:01:23.716Z,2.60
2018-05-04T14:02:23.723Z,3.20
2018-05-04T14:03:23.732Z,2.90
2018-05-04T14:04:23.739Z,2.50
2018-05-04T14:05:23.747Z,3.20
2018-05-04T14:06:23.755Z,2.70
2018-05-04T14:07:23.761Z,2.20
2018-05-04T14:08:23.771Z,3.40
2018-05-04T14:09:23.778Z,3.20
2018-05-04T14:10:23.786Z,2.80
2018-05-04T14:11:23.793Z,2.90
2018-05-04T14:12:23.804Z,2.60
2018-05-04T14:13:23.809Z,2.70
2018-05-04T14:14:23.818Z,2.30
2018-05-04T14:15:23.825Z,2.40
2018-05-04T14:16:23.833Z,2.50
2018-05-04T14:17:23.842Z,3.20
2018-05-04T14:18:23.849Z,2.60
2018-05-04T14:19:23.857Z,2.60
2018-05-04T14:20:23.864Z,3.00
2018-05-04T14:21:23.871Z,2.90
2018-05-04T14:22:23.881Z,2.90
2018-05-04T14:23:23.888Z,2.80
2018-05-04T14:24:23.896Z,3.00
2018-05-04T14:25:23.908Z,2.80
2018-05-04T14:26:23.913Z,2.40
2018-05-04T14:27:23.921Z,2.80
2018-05-04T14:28:23.929Z,2.50
2018-05-04T14:29:23.936Z,3.10
2018-05-04T14:30:23.945Z,3.00
2018-05-04T14:31:23.953Z,2.70
2018-05-04T14:32:23.960Z,2.90
2018-05-04T14:33:23.969Z,3.10
2018-05-04T14:34:23.978Z,3.30
2018-05-04T14:35:23.985Z,3.10
2018-05-04T14:36:23.993Z,3.20
2018-05-04T14:37:24.001Z,3.20
2018-05-04T14:38:24.009Z,3.00
2018-05-04T14:39:24.018Z,3.30
2018-05-04T14:40:24.025Z,4.10
2018-05-04T14:41:24.034Z,3.00
2018-05-04T14:42:24.043Z,3.10
2018-05-04T14:43:24.050Z,3.50
2018-05-04T14:44:24.060Z,3.00
2018-05-04T14:45:24.066Z,3.20
2018-05-04T14:46:24.075Z,3.60
2018-05-04T14:47:24.083Z,3.50
2018-05-04T14:48:24.091Z,3.40
2018-05-04T14:49:24.100Z,3.60
2018-05-04T14:50:24.109Z,3.40
2018-05-04T14:51:24.129Z,3.50
2018-05-04T14:52:24.125Z,3.50
2018-05-04T14:53:24.145Z,3.00
2018-05-04T14:54:24.142Z,2.90
2018-05-04T14:55:24.150Z,2.60
2018-05-04T14:56:24.159Z,3.00
2018-05-04T14:57:24.168Z,2.40
2018-05-04T14:58:24.178Z,3.40
2018-05-04T14:59:24.183Z,2.80
2018-05-04T15:00:24.191Z,3.00
2018-05-04T15:01:24.199Z,3.00
2018-05-04T15:02:24.208Z,3.10
2018-05-04T15:03:24.216Z,3.30
2018-05-04T15:04:24.228Z,3.80
2018-05-04T15:05:24.234Z,2.90
2018-05-04T15:06:24.243Z,2.70
2018-05-04T15:07:24.251Z,2.90
2018-05-04T15:08:24.259Z,3.20
2018-05-04T15:09:24.270Z,2.90
2018-05-04T15:10:24.277Z,3.00
2018-05-04T15:11:24.285Z,2.30
2018-05-04T15:12:24.293Z,2.60
2018-05-04T15:13:24.302Z,3.40
2018-05-04T15:14:24.310Z,2.70
2018-05-04T15:15:24.320Z,2.90
2018-05-04T15:16:24.331Z,3.10
2018-05-04T15:17:24.335Z,3.30
2018-05-04T15:18:24.344Z,3.20
2018-05-04T15:19:24.351Z,3.20
2018-05-04T15:20:24.360Z,3.00
2018-05-04T15:21:24.372Z,2.60
2018-05-04T15:22:24.379Z,3.20
2018-05-04T15:23:24.389Z,2.60
2018-05-04T15:24:24.395Z,2.80
2018-05-04T15:25:24.402Z,3.60
2018-05-04T15:26:24.411Z,2.90
2018-05-04T15:27:24.419Z,3.50
2018-05-04T15:28:24.427Z,2.90
2018-05-04T15:29:24.435Z,3.10
2018-05-04T15:30:24.444Z,3.20
2018-05-04T15:31:24.453Z,3.40
2018-05-04T15:32:24.461Z,2.90
2018-05-04T15:33:24.473Z,2.90
2018-05-04T15:34:24.477Z,2.90
2018-05-04T15:35:24.484Z,2.80
2018-05-04T15:36:24.493Z,2.80
2018-05-04T15:37:24.501Z,3.00
2018-05-04T15:38:24.511Z,3.20
2018-05-04T15:39:24.516Z,2.70
2018-05-04T15:40:24.601Z,2.90
2018-05-04T15:41:24.535Z,3.30
2018-05-04T15:42:24.543Z,2.90
2018-05-04T15:43:24.549Z,2.80
2018-05-04T15:44:24.558Z,3.00
2018-05-04T15:45:24.567Z,2.60
2018-05-04T15:46:24.579Z,3.10
2018-05-04T15:47:24.586Z,3.40
2018-05-04T15:48:24.595Z,3.70
2018-05-04T15:49:24.602Z,3.00
2018-05-04T15:50:24.608Z,3.20
2018-05-04T15:51:24.619Z,3.00
2018-05-04T15:52:24.625Z,3.30
2018-05-04T15:53:24.633Z,3.20
2018-05-04T15:54:24.642Z,3.40
2018-05-04T15:55:24.654Z,2.60
2018-05-04T15:56:24.657Z,3.50
2018-05-04T15:57:24.666Z,3.60
2018-05-04T15:58:24.674Z,3.20
2018-05-04T15:59:24.681Z,3.20
2018-05-04T16:00:24.691Z,2.60
2018-05-04T16:01:24.698Z,3.30
2018-05-04T16:02:24.709Z,2.80
2018-05-04T16:03:24.715Z,2.80
2018-05-04T16:04:24.727Z,2.80
2018-05-04T16:05:24.732Z,2.90
2018-05-04T16:06:24.740Z,2.70
2018-05-04T16:07:24.747Z,3.10
2018-05-04T16:08:24.760Z,2.50
2018-05-04T16:09:24.764Z,3.30
2018-05-04T16:10:24.773Z,3.00
2018-05-04T16:11:24.779Z,2.70
2018-05-04T16:12:24.789Z,3.00
2018-05-04T16:13:24.798Z,2.60
2018-05-04T16:14:24.805Z,3.00
2018-05-04T16:15:24.813Z,2.80
2018-05-04T16:16:24.820Z,2.90
2018-05-04T16:17:24.829Z,3.50
2018-05-04T16:18:24.838Z,2.90
2018-05-04T16:19:24.850Z,2.50
2018-05-04T16:20:24.855Z,3.30
2018-05-04T16:21:24.862Z,2.60
2018-05-04T16:22:24.869Z,2.90
2018-05-04T16:23:24.876Z,3.00
2018-05-04T16:24:24.885Z,2.60
2018-05-04T16:25:24.896Z,2.80
2018-05-04T16:26:24.901Z,2.60
2018-05-04T16:27:24.908Z,3.00
2018-05-04T16:28:24.919Z,3.00
2018-05-04T16:29:24.925Z,2.50
2018-05-04T16:30:24.933Z,2.80
2018-05-04T16:31:24.939Z,2.90
2018-05-04T16:32:24.948Z,3.10
2018-05-04T16:33:24.956Z,3.10
2018-05-04T16:34:24.965Z,2.80
2018-05-04T16:35:24.973Z,2.70
2018-05-04T16:36:24.982Z,2.80
2018-05-04T16:37:24.987Z,2.50
2018-05-04T16:38:24.996Z,3.30
2018-05-04T16:39:25.009Z,2.50
2018-05-04T16:40:25.011Z,2.30
2018-05-04T16:41:25.020Z,3.10
2018-05-04T16:42:25.027Z,2.30
2018-05-04T16:43:25.035Z,2.60
2018-05-04T16:44:25.046Z,3.20
2018-05-04T16:45:25.051Z,2.30
2018-05-04T16:46:25.058Z,2.60
2018-05-04T16:47:25.066Z,2.90
2018-05-04T16:48:25.074Z,2.30
2018-05-04T16:49:25.085Z,2.80
2018-05-04T16:50:25.092Z,2.40
2018-05-04T16:51:25.097Z,2.50
2018-05-04T16:52:25.105Z,2.70
2018-05-04T16:53:25.113Z,2.50
2018-05-04T16:54:25.121Z,3.10
2018-05-04T16:55:25.130Z,2.40
2018-05-04T16:56:25.137Z,2.50
2018-05-04T16:57:25.145Z,2.70
2018-05-04T16:58:25.152Z,2.40
2018-05-04T16:59:25.159Z,2.60
2018-05-04T17:00:25.167Z,2.20
2018-05-04T17:01:25.175Z,2.60
2018-05-04T17:02:25.184Z,2.20
2018-05-04T17:03:25.190Z,2.10
2018-05-04T17:04:25.198Z,2.20
2018-05-04T17:05:25.206Z,2.60
2018-05-04T17:06:25.214Z,2.40
2018-05-04T17:07:25.220Z,2.70
2018-05-04T17:08:25.229Z,2.50
2018-05-04T17:09:25.237Z,2.40
2018-05-04T17:10:25.245Z,2.40
2018-05-04T17:11:25.252Z,2.30
2018-05-04T17:12:25.258Z,2.30
2018-05-04T17:13:25.267Z,2.20
2018-05-04T17:14:25.275Z,2.70
2018-05-04T17:15:25.281Z,3.00
2018-05-04T17:16:25.290Z,2.70
2018-05-04T17:17:25.297Z,2.80
2018-05-04T17:18:25.305Z,2.50
2018-05-04T17:19:25.312Z,2.50
2018-05-04T17:20:25.319Z,1.90
2018-05-04T17:21:25.329Z,2.40
2018-05-04T17:22:25.334Z,2.20
2018-05-04T17:23:25.341Z,2.30
2018-05-04T17:24:25.349Z,2.00
2018-05-04T17:25:25.364Z,2.00
2018-05-04T17:26:25.364Z,2.40
2018-05-04T17:27:25.373Z,2.30
2018-05-04T17:28:25.379Z,2.50
2018-05-04T17:29:25.391Z,2.30
2018-05-04T17:30:25.393Z,2.10
2018-05-04T17:31:25.399Z,2.50
2018-05-04T17:32:25.408Z,2.30
2018-05-04T17:33:25.415Z,2.00
2018-05-04T17:34:25.423Z,2.70
2018-05-04T17:35:25.430Z,2.50
2018-05-04T17:36:25.438Z,2.30
2018-05-04T17:37:25.445Z,2.60
2018-05-04T17:38:25.453Z,2.50
2018-05-04T17:39:25.459Z,2.90
2018-05-04T17:40:25.560Z,2.40
2018-05-04T17:41:25.474Z,2.20
2018-05-04T17:42:25.480Z,2.80
2018-05-04T17:43:25.488Z,2.30
2018-05-04T17:44:25.511Z,2.00
2018-05-04T17:45:25.503Z,2.40
2018-05-04T17:46:25.511Z,2.40
2018-05-04T17:47:25.530Z,2.30
2018-05-04T17:48:25.529Z,2.00
2018-05-04T17:49:25.533Z,2.10
2018-05-04T17:50:25.540Z,2.80
2018-05-04T17:51:25.546Z,2.90
2018-05-04T17:52:25.554Z,2.30
2018-05-04T17:53:25.561Z,2.20
2018-05-04T17:54:25.569Z,2.70
2018-05-04T17:55:25.575Z,2.50
2018-05-04T17:56:25.583Z,2.30
2018-05-04T17:57:25.590Z,1.80
2018-05-04T17:58:25.601Z,2.30
2018-05-04T17:59:25.604Z,2.30
2018-05-04T18:00:25.611Z,2.50
2018-05-04T18:01:25.675Z,2.40
2018-05-04T18:02:25.626Z,2.30
2018-05-04T18:03:25.632Z,2.10
2018-05-04T18:04:25.640Z,2.20
2018-05-04T18:05:25.647Z,2.60
2018-05-04T18:06:25.654Z,2.60
2018-05-04T18:07:25.660Z,2.40
2018-05-04T18:08:25.667Z,2.70
2018-05-04T18:09:25.674Z,2.40
2018-05-04T18:10:25.682Z,2.40
2018-05-04T18:11:25.695Z,2.50
2018-05-04T18:12:25.695Z,2.20
2018-05-04T18:13:25.703Z,2.70
2018-05-04T18:14:25.717Z,2.80
2018-05-04T18:15:25.719Z,2.30
2018-05-04T18:16:25.724Z,2.50
2018-05-04T18:17:25.761Z,2.80
2018-05-04T18:18:25.739Z,2.40
2018-05-04T18:19:25.743Z,2.30
2018-05-04T18:20:25.751Z,2.30
2018-05-04T18:21:25.757Z,2.30
2018-05-04T18:22:25.763Z,2.30
2018-05-04T18:23:25.770Z,2.60
2018-05-04T18:24:25.779Z,2.30
2018-05-04T18:25:25.784Z,2.40
2018-05-04T18:26:25.791Z,2.50
2018-05-04T18:27:25.797Z,3.00
2018-05-04T18:28:25.804Z,2.80
2018-05-04T18:29:25.899Z,2.60
2018-05-04T18:30:25.817Z,2.30
2018-05-04T18:31:25.821Z,2.70
2018-05-04T18:32:25.829Z,3.10
2018-05-04T18:33:25.835Z,2.90
2018-05-04T18:34:25.845Z,2.60
2018-05-04T18:35:25.848Z,3.00
2018-05-04T18:36:25.853Z,2.80
2018-05-04T18:37:25.860Z,2.70
2018-05-04T18:38:25.885Z,2.90
2018-05-04T18:39:25.872Z,3.20
2018-05-04T18:40:25.877Z,2.40
2018-05-04T18:41:25.885Z,2.60
2018-05-04T18:42:25.891Z,2.90
2018-05-04T18:43:25.897Z,2.60
2018-05-04T18:44:25.902Z,3.40
2018-05-04T18:45:25.908Z,2.90
2018-05-04T18:46:25.914Z,3.00
2018-05-04T18:47:25.918Z,2.80
2018-05-04T18:48:26.035Z,3.20
2018-05-04T18:49:25.931Z,2.90
2018-05-04T18:50:25.937Z,2.80
2018-05-04T18:51:25.941Z,3.10
2018-05-04T18:52:25.948Z,2.70
2018-05-04T18:53:25.953Z,2.80
2018-05-04T18:54:25.983Z,3.10
2018-05-04T18:55:25.970Z,2.30
2018-05-04T18:56:25.970Z,3.10
2018-05-04T18:57:25.976Z,2.20
2018-05-04T18:58:25.982Z,2.60
2018-05-04T18:59:25.986Z,3.10
2018-05-04T19:00:25.991Z,3.10
2018-05-04T19:01:26.007Z,2.60
2018-05-04T19:02:26.011Z,3.30
2018-05-04T19:03:26.007Z,2.80
2018-05-04T19:04:26.015Z,2.80
2018-05-04T19:05:26.018Z,2.60
2018-05-04T19:06:26.026Z,2.60
2018-05-04T19:07:26.029Z,2.70
2018-05-04T19:08:26.033Z,3.00
2018-05-04T19:09:26.038Z,2.80
2018-05-04T19:10:26.044Z,2.90
2018-05-04T19:11:26.050Z,2.50
2018-05-04T19:12:26.053Z,2.90
2018-05-04T19:13:26.059Z,2.80
2018-05-04T19:14:26.064Z,2.80
2018-05-04T19:15:26.068Z,2.80
2018-05-04T19:16:26.074Z,3.00
2018-05-04T19:17:26.082Z,2.80
2018-05-04T19:18:26.084Z,2.50
2018-05-04T19:19:26.096Z,2.80
2018-05-04T19:20:26.093Z,2.90
2018-05-04T19:21:26.098Z,3.00
2018-05-04T19:22:26.105Z,3.30
2018-05-04T19:23:26.107Z,2.70
2018-05-04T19:24:26.114Z,2.80
2018-05-04T19:25:26.117Z,2.60
2018-05-04T19:26:26.123Z,2.70
2018-05-04T19:27:26.125Z,2.80
2018-05-04T19:28:26.131Z,3.00
2018-05-04T19:29:26.137Z,2.80
2018-05-04T19:30:26.140Z,2.90
2018-05-04T19:31:26.144Z,2.50
2018-05-04T19:32:26.149Z,2.90
2018-05-04T19:33:26.153Z,3.00
2018-05-04T19:34:26.228Z,2.90
2018-05-04T19:35:26.161Z,2.40
2018-05-04T19:36:26.166Z,3.10
2018-05-04T19:37:26.170Z,2.30
2018-05-04T19:38:26.178Z,3.00
2018-05-04T19:39:26.183Z,2.70
2018-05-04T19:40:26.183Z,2.30
2018-05-04T19:41:26.188Z,2.90
2018-05-04T19:42:26.192Z,2.80
2018-05-04T19:43:26.198Z,3.20
2018-05-04T19:44:26.284Z,2.50
2018-05-04T19:45:26.205Z,2.50
2018-05-04T19:46:26.209Z,2.70
2018-05-04T19:47:26.213Z,2.30
2018-05-04T19:48:26.215Z,2.60
2018-05-04T19:49:26.221Z,2.90
2018-05-04T19:50:26.225Z,2.50